Terminal Aerodrome Forecast
Issued by NWS

Home | Current Version | Previous Version | Text Only | Print | Product List | Glossary On
Versions: 1 2 3 4 5 6 7 8 9 10 11 12 13 14 15 16 17 18 19 20 21 22 23 24 25
000
FTUS43 KABR 221100
TAFATY
TAF
KATY 221123Z 2212/2312 16010KT 6SM BR OVC003
      TEMPO 2212/2215 3SM -RA BR OVC006
     FM221500 14008KT 3SM -RA BR OVC006
     FM221800 12009KT 5SM -RASN BR OVC007
     FM230300 06011KT 2SM -SN BR OVC004=

USA.gov is the U.S. government's official web portal to all federal, state and local government web resources and services.